createdAt,value
2018-05-01T00:01:38.949Z,10.07
2018-05-01T00:04:07.233Z,10.80
2018-05-01T00:06:34.800Z,9.60
2018-05-01T00:09:02.344Z,10.00
2018-05-01T00:11:30.646Z,10.37
2018-05-01T00:13:58.181Z,9.73
2018-05-01T00:16:26.465Z,9.37
2018-05-01T00:18:53.996Z,9.00
2018-05-01T00:21:22.310Z,9.10
2018-05-01T00:23:49.818Z,8.00
2018-05-01T00:26:17.327Z,7.77
2018-05-01T00:28:44.897Z,7.10
2018-05-01T00:31:12.406Z,5.90
2018-05-01T00:33:40.678Z,6.27
2018-05-01T00:36:08.976Z,5.27
2018-05-01T00:38:37.263Z,5.67
2018-05-01T00:41:04.794Z,6.20
2018-05-01T00:43:33.127Z,5.53
2018-05-01T00:46:00.635Z,6.33
2018-05-01T00:48:28.947Z,5.50
2018-05-01T00:50:56.488Z,5.03
2018-05-01T00:53:24.010Z,5.27
2018-05-01T00:55:51.631Z,4.00
2018-05-01T00:58:19.172Z,3.87
2018-05-01T01:00:46.679Z,3.93
2018-05-01T01:03:14.196Z,2.03
2018-05-01T01:05:42.107Z,1.60
2018-05-01T01:08:09.625Z,1.80
2018-05-01T01:10:37.151Z,1.30
2018-05-01T01:13:04.731Z,1.20
2018-05-01T01:15:32.252Z,1.33
2018-05-01T01:18:00.536Z,0.70
2018-05-01T01:20:28.866Z,0.73
2018-05-01T01:22:56.408Z,1.13
2018-05-01T01:25:23.909Z,0.80
2018-05-01T01:27:51.454Z,0.70
2018-05-01T01:30:18.983Z,0.80
2018-05-01T01:32:46.508Z,0.67
2018-05-01T01:35:13.552Z,0.80
2018-05-01T01:37:41.357Z,0.80
2018-05-01T01:40:08.401Z,0.73
2018-05-01T01:42:35.552Z,1.00
2018-05-01T01:45:02.697Z,0.93
2018-05-01T01:47:29.728Z,0.90
2018-05-01T01:49:56.787Z,0.90
2018-05-01T01:52:23.826Z,0.80
2018-05-01T01:54:50.856Z,0.90
2018-05-01T01:57:17.934Z,0.80
2018-05-01T01:59:44.968Z,1.10
2018-05-01T02:02:12.000Z,0.90
2018-05-01T02:04:39.150Z,1.00
2018-05-01T02:07:06.162Z,1.20
2018-05-01T02:09:33.195Z,1.10
2018-05-01T02:12:01.831Z,0.83
2018-05-01T02:14:28.863Z,0.90
2018-05-01T02:16:55.881Z,0.80
2018-05-01T02:19:23.693Z,1.13
2018-05-01T02:21:50.726Z,0.80
2018-05-01T02:24:17.796Z,1.20
2018-05-01T02:26:44.854Z,0.90
2018-05-01T02:29:11.970Z,0.80
2018-05-01T02:31:38.994Z,0.90
2018-05-01T02:34:06.832Z,0.70
2018-05-01T02:36:33.940Z,0.80
2018-05-01T02:39:00.992Z,0.90
2018-05-01T02:41:28.074Z,0.87
2018-05-01T02:43:55.105Z,1.07
2018-05-01T02:46:22.136Z,1.30
2018-05-01T02:48:49.191Z,0.87
2018-05-01T02:51:16.222Z,1.30
2018-05-01T02:53:43.277Z,1.63
2018-05-01T02:56:10.330Z,2.03
2018-05-01T02:58:38.345Z,1.80
2018-05-01T03:01:06.138Z,1.70
2018-05-01T03:03:33.205Z,1.80
2018-05-01T03:06:00.237Z,1.53
2018-05-01T03:08:27.287Z,1.37
2018-05-01T03:10:54.360Z,1.67
2018-05-01T03:13:21.392Z,1.53
2018-05-01T03:15:48.423Z,2.00
2018-05-01T03:18:15.582Z,1.70
2018-05-01T03:20:43.017Z,1.60
2018-05-01T03:23:10.058Z,1.80
2018-05-01T03:25:37.106Z,2.50
2018-05-01T03:28:04.175Z,2.47
2018-05-01T03:30:31.189Z,3.10
2018-05-01T03:32:59.076Z,2.80
2018-05-01T03:35:26.122Z,2.87
2018-05-01T03:37:53.184Z,2.90
2018-05-01T03:40:20.234Z,2.93
2018-05-01T03:42:47.251Z,3.03
2018-05-01T03:45:14.283Z,2.67
2018-05-01T03:47:42.097Z,2.10
2018-05-01T03:50:09.115Z,2.23
2018-05-01T03:52:36.141Z,2.23
2018-05-01T03:55:03.953Z,2.00
2018-05-01T03:57:31.078Z,2.20
2018-05-01T03:59:58.116Z,2.60
2018-05-01T04:02:25.160Z,2.13
2018-05-01T04:04:52.553Z,2.27
2018-05-01T04:07:19.569Z,2.57
2018-05-01T04:09:46.735Z,2.10
2018-05-01T04:12:13.760Z,2.10
2018-05-01T04:14:40.793Z,2.10
2018-05-01T04:17:07.860Z,2.00
2018-05-01T04:19:34.877Z,2.23
2018-05-01T04:22:02.676Z,2.70
2018-05-01T04:24:29.740Z,2.50
2018-05-01T04:26:56.786Z,2.27
2018-05-01T04:29:23.819Z,2.60
2018-05-01T04:31:50.865Z,2.50
2018-05-01T04:34:17.895Z,2.80
2018-05-01T04:36:44.913Z,2.80
2018-05-01T04:39:12.718Z,3.40
2018-05-01T04:41:39.738Z,3.10
2018-05-01T04:44:06.760Z,2.90
2018-05-01T04:46:34.684Z,4.03
2018-05-01T04:49:01.709Z,2.57
2018-05-01T04:51:28.870Z,2.20
2018-05-01T04:53:55.928Z,2.50
2018-05-01T04:56:22.958Z,2.80
2018-05-01T04:58:49.989Z,2.33
2018-05-01T05:01:17.048Z,3.17
2018-05-01T05:03:44.080Z,2.30
2018-05-01T05:06:11.099Z,2.47
2018-05-01T05:08:38.902Z,2.43
2018-05-01T05:11:05.955Z,2.50
2018-05-01T05:13:32.993Z,2.40
2018-05-01T05:16:00.146Z,2.27
2018-05-01T05:18:27.205Z,2.10
2018-05-01T05:20:54.221Z,1.70
2018-05-01T05:23:22.039Z,2.20
2018-05-01T05:25:49.073Z,1.63
2018-05-01T05:28:16.090Z,1.73
2018-05-01T05:30:43.140Z,2.30
2018-05-01T05:33:10.180Z,1.97
2018-05-01T05:35:37.672Z,1.87
2018-05-01T05:38:04.739Z,2.23
2018-05-01T05:40:32.525Z,2.37
2018-05-01T05:43:00.317Z,3.03
2018-05-01T05:45:27.394Z,2.57
2018-05-01T05:47:54.533Z,2.03
2018-05-01T05:50:23.097Z,2.07
2018-05-01T05:52:50.242Z,1.93
2018-05-01T05:55:17.296Z,1.90
2018-05-01T05:57:44.316Z,1.60
2018-05-01T06:00:12.219Z,2.00
2018-05-01T06:02:39.251Z,1.63
2018-05-01T06:05:06.291Z,1.87
2018-05-01T06:07:33.351Z,1.77
2018-05-01T06:10:00.480Z,2.83
2018-05-01T06:12:27.520Z,2.20
2018-05-01T06:14:55.524Z,1.83
2018-05-01T06:17:22.560Z,2.00
2018-05-01T06:19:49.576Z,2.13
2018-05-01T06:22:17.388Z,1.70
2018-05-01T06:24:45.265Z,2.47
2018-05-01T06:27:12.291Z,2.30
2018-05-01T06:29:39.430Z,2.50
2018-05-01T06:32:06.449Z,2.17
2018-05-01T06:34:34.251Z,2.10
2018-05-01T06:37:01.712Z,2.27
2018-05-01T06:39:28.856Z,2.20
2018-05-01T06:41:55.899Z,2.20
2018-05-01T06:44:23.052Z,2.03
2018-05-01T06:46:50.084Z,1.80
2018-05-01T06:49:17.101Z,2.10
2018-05-01T06:51:44.914Z,2.40
2018-05-01T06:54:11.944Z,2.20
2018-05-01T06:56:38.971Z,3.10
2018-05-01T06:59:06.016Z,2.73
2018-05-01T07:01:33.029Z,2.60
2018-05-01T07:04:00.140Z,2.33
2018-05-01T07:06:27.247Z,2.40
2018-05-01T07:08:55.056Z,2.63
2018-05-01T07:11:22.105Z,2.50
2018-05-01T07:13:49.149Z,2.80
2018-05-01T07:16:16.260Z,3.03
2018-05-01T07:18:44.153Z,2.63
2018-05-01T07:21:11.224Z,2.20
2018-05-01T07:23:38.245Z,3.20
2018-05-01T07:26:05.288Z,3.00
2018-05-01T07:28:32.332Z,2.73
2018-05-01T07:30:59.381Z,2.63
2018-05-01T07:33:26.427Z,2.50
2018-05-01T07:35:54.168Z,2.37
2018-05-01T07:38:22.061Z,2.03
2018-05-01T07:40:49.085Z,2.27
2018-05-01T07:43:16.143Z,1.97
2018-05-01T07:45:43.161Z,2.07
2018-05-01T07:48:10.968Z,2.13
2018-05-01T07:50:38.023Z,1.80
2018-05-01T07:53:05.059Z,1.70
2018-05-01T07:55:32.092Z,2.00
2018-05-01T07:57:59.157Z,1.53
2018-05-01T08:00:26.656Z,1.50
2018-05-01T08:02:53.638Z,1.80
2018-05-01T08:05:20.694Z,1.33
2018-05-01T08:07:47.705Z,1.10
2018-05-01T08:10:15.940Z,1.47
2018-05-01T08:12:43.006Z,1.70
2018-05-01T08:15:10.102Z,1.37
2018-05-01T08:17:37.158Z,1.57
2018-05-01T08:20:04.221Z,1.37
2018-05-01T08:22:31.245Z,1.43
2018-05-01T08:24:58.273Z,1.33
2018-05-01T08:27:26.086Z,2.30
2018-05-01T08:29:53.120Z,1.50
2018-05-01T08:32:20.159Z,1.60
2018-05-01T08:34:47.206Z,1.70
2018-05-01T08:37:14.220Z,1.40
2018-05-01T08:39:42.217Z,1.40
2018-05-01T08:42:09.255Z,1.23
2018-05-01T08:44:36.271Z,1.90
2018-05-01T08:47:04.075Z,2.00
2018-05-01T08:49:31.094Z,1.80
2018-05-01T08:51:58.163Z,2.00
2018-05-01T08:54:25.214Z,2.43
2018-05-01T08:56:52.259Z,2.43
2018-05-01T08:59:19.306Z,2.97
2018-05-01T09:01:46.349Z,3.30
2018-05-01T09:04:13.442Z,3.23
2018-05-01T09:06:41.272Z,3.80
2018-05-01T09:09:08.316Z,3.50
2018-05-01T09:11:35.359Z,2.27
2018-05-01T09:14:02.378Z,2.43
2018-05-01T09:16:29.442Z,3.77
2018-05-01T09:18:56.596Z,3.67
2018-05-01T09:21:23.651Z,3.40
2018-05-01T09:23:50.707Z,4.33
2018-05-01T09:26:17.740Z,4.80
2018-05-01T09:28:44.799Z,4.07
2018-05-01T09:31:11.933Z,4.03
2018-05-01T09:33:38.953Z,3.87
2018-05-01T09:36:06.768Z,4.90
2018-05-01T09:38:33.908Z,4.93
2018-05-01T09:41:00.959Z,4.30
2018-05-01T09:43:28.092Z,4.97
2018-05-01T09:45:55.123Z,4.60
2018-05-01T09:48:22.171Z,4.40
2018-05-01T09:50:49.204Z,4.13
2018-05-01T09:53:16.804Z,4.50
2018-05-01T09:55:44.355Z,5.07
2018-05-01T09:58:11.869Z,5.13
2018-05-01T10:00:40.180Z,5.90
2018-05-01T10:03:07.728Z,5.20
2018-05-01T10:05:35.297Z,4.90
2018-05-01T10:08:05.023Z,5.80
2018-05-01T10:10:32.592Z,5.40
2018-05-01T10:13:00.152Z,6.80
2018-05-01T10:15:27.672Z,6.30
2018-05-01T10:17:55.197Z,6.10
2018-05-01T10:20:23.515Z,4.77
2018-05-01T10:22:51.055Z,5.60
2018-05-01T10:25:19.630Z,5.70
2018-05-01T10:27:47.933Z,5.60
2018-05-01T10:30:15.453Z,5.43
2018-05-01T10:32:43.756Z,5.40
2018-05-01T10:35:11.351Z,5.70
2018-05-01T10:37:39.308Z,6.37
2018-05-01T10:40:06.824Z,6.57
2018-05-01T10:42:34.377Z,7.00
2018-05-01T10:45:02.684Z,6.20
2018-05-01T10:47:30.196Z,6.53
2018-05-01T10:49:58.490Z,7.30
2018-05-01T10:52:26.923Z,6.10
2018-05-01T10:54:54.475Z,6.73
2018-05-01T10:57:22.005Z,7.30
2018-05-01T10:59:49.569Z,5.23
2018-05-01T11:02:17.127Z,6.10
2018-05-01T11:04:44.653Z,5.03
2018-05-01T11:07:12.229Z,5.30
2018-05-01T11:09:39.816Z,5.73
2018-05-01T11:12:07.384Z,3.60
2018-05-01T11:14:34.922Z,4.57
2018-05-01T11:17:02.489Z,5.30
2018-05-01T11:19:30.044Z,4.90
2018-05-01T11:21:57.668Z,5.53
2018-05-01T11:24:25.976Z,4.70
2018-05-01T11:26:53.501Z,6.00
2018-05-01T11:29:21.809Z,4.90
2018-05-01T11:31:49.351Z,4.60
2018-05-01T11:34:16.863Z,5.80
2018-05-01T11:36:44.500Z,5.17
2018-05-01T11:39:12.140Z,5.07
2018-05-01T11:41:39.650Z,4.90
2018-05-01T11:44:08.676Z,4.47
2018-05-01T11:46:36.232Z,5.30
2018-05-01T11:49:03.756Z,5.00
2018-05-01T11:51:31.263Z,4.47
2018-05-01T11:53:58.825Z,4.03
2018-05-01T11:56:26.325Z,4.50
2018-05-01T11:58:54.616Z,4.10
2018-05-01T12:01:22.175Z,4.10
2018-05-01T12:03:50.508Z,3.53
2018-05-01T12:06:18.033Z,4.20
2018-05-01T12:08:45.631Z,4.67
2018-05-01T12:11:13.190Z,3.90
2018-05-01T12:13:40.714Z,4.00
2018-05-01T12:16:08.301Z,4.10
2018-05-01T12:18:35.899Z,3.77
2018-05-01T12:21:03.518Z,4.40
2018-05-01T12:23:31.062Z,4.20
2018-05-01T12:25:58.569Z,3.97
2018-05-01T12:28:26.847Z,4.10
2018-05-01T12:30:54.469Z,4.23
2018-05-01T12:33:21.984Z,3.83
2018-05-01T12:35:50.274Z,3.50
2018-05-01T12:38:17.839Z,3.17
2018-05-01T12:40:45.355Z,4.37
2018-05-01T12:43:14.412Z,3.93
2018-05-01T12:45:41.954Z,3.30
2018-05-01T12:48:09.599Z,3.10
2018-05-01T12:50:38.613Z,3.60
2018-05-01T12:53:06.175Z,3.10
2018-05-01T12:55:33.709Z,3.73
2018-05-01T12:58:01.229Z,3.87
2018-05-01T13:00:28.788Z,4.20
2018-05-01T13:02:56.316Z,3.50
2018-05-01T13:05:23.825Z,3.80
2018-05-01T13:10:26.766Z,3.43
2018-05-01T13:12:54.309Z,3.57
2018-05-01T13:15:21.826Z,4.10
2018-05-01T13:17:50.886Z,3.73
2018-05-01T13:20:18.429Z,3.60
2018-05-01T13:22:45.978Z,4.10
2018-05-01T13:25:13.493Z,3.50
2018-05-01T13:27:41.124Z,3.27
2018-05-01T13:30:08.658Z,3.60
2018-05-01T13:32:36.286Z,3.83
2018-05-01T13:35:03.805Z,3.63
2018-05-01T13:37:31.337Z,3.43
2018-05-01T13:39:58.850Z,3.20
2018-05-01T13:42:26.393Z,3.70
2018-05-01T13:44:54.021Z,3.03
2018-05-01T13:47:21.557Z,3.00
2018-05-01T13:49:49.125Z,3.77
2018-05-01T13:52:16.656Z,3.50
2018-05-01T13:54:44.953Z,3.97
2018-05-01T13:57:12.539Z,3.10
2018-05-01T13:59:40.050Z,4.23
2018-05-01T14:02:08.319Z,3.00
2018-05-01T14:04:36.643Z,3.13
2018-05-01T14:07:04.193Z,2.80
2018-05-01T14:09:31.735Z,2.53
2018-05-01T14:11:59.271Z,2.30
2018-05-01T14:14:27.549Z,2.07
2018-05-01T14:16:55.831Z,2.30
2018-05-01T14:19:24.330Z,2.00
2018-05-01T14:21:51.694Z,2.33
2018-05-01T14:24:19.213Z,1.70
2018-05-01T14:26:47.544Z,2.30
2018-05-01T14:29:15.075Z,1.83
2018-05-01T14:31:42.607Z,1.70
2018-05-01T14:34:10.921Z,2.13
2018-05-01T14:36:38.446Z,2.30
2018-05-01T14:39:06.766Z,1.90
2018-05-01T14:41:34.287Z,1.60
2018-05-01T14:44:02.564Z,1.40
2018-05-01T14:46:31.048Z,1.23
2018-05-01T14:48:58.574Z,1.50
2018-05-01T14:51:26.873Z,1.67
2018-05-01T14:53:55.192Z,2.07
2018-05-01T14:56:22.697Z,1.93
2018-05-01T14:58:50.993Z,1.40
2018-05-01T15:01:18.543Z,2.00
2018-05-01T15:03:46.077Z,1.50
2018-05-01T15:06:13.602Z,1.70
2018-05-01T15:08:41.144Z,1.60
2018-05-01T15:11:08.667Z,1.30
2018-05-01T15:13:37.399Z,1.50
2018-05-01T15:16:04.955Z,1.47
2018-05-01T15:18:32.480Z,1.40
2018-05-01T15:21:00.787Z,1.57
2018-05-01T15:23:28.325Z,1.90
2018-05-01T15:25:55.850Z,1.77
2018-05-01T15:28:23.366Z,1.70
2018-05-01T15:30:50.940Z,1.50
2018-05-01T15:33:18.479Z,2.23
2018-05-01T15:35:45.994Z,1.90
2018-05-01T15:38:14.305Z,1.50
2018-05-01T15:40:41.823Z,1.77
2018-05-01T15:43:10.113Z,1.40
2018-05-01T15:45:38.427Z,1.70
2018-05-01T15:48:05.954Z,1.27
2018-05-01T15:50:33.513Z,1.60
2018-05-01T15:53:01.026Z,1.50
2018-05-01T15:55:28.544Z,1.90
2018-05-01T15:57:56.100Z,1.93
2018-05-01T16:00:23.617Z,1.30
2018-05-01T16:02:51.140Z,1.80
2018-05-01T16:05:18.683Z,2.00
2018-05-01T16:07:46.202Z,1.30
2018-05-01T16:10:14.519Z,1.60
2018-05-01T16:12:42.349Z,1.73
2018-05-01T16:15:10.637Z,1.13
2018-05-01T16:17:38.157Z,1.40
2018-05-01T16:20:05.707Z,1.33
2018-05-01T16:22:33.233Z,1.50
2018-05-01T16:25:00.759Z,1.10
2018-05-01T16:27:29.080Z,2.00
2018-05-01T16:29:56.621Z,1.83
2018-05-01T16:32:24.145Z,1.50
2018-05-01T16:34:52.460Z,1.47
2018-05-01T16:37:20.020Z,1.73
2018-05-01T16:39:47.529Z,1.50
2018-05-01T16:42:15.079Z,1.47
2018-05-01T16:44:42.695Z,1.27
2018-05-01T16:47:10.259Z,1.43
2018-05-01T16:49:37.924Z,1.07
2018-05-01T16:52:05.449Z,1.00
2018-05-01T16:54:32.975Z,1.07
2018-05-01T16:57:00.577Z,1.23
2018-05-01T16:59:28.097Z,1.60
2018-05-01T17:01:55.713Z,1.30
2018-05-01T17:04:23.266Z,1.20
2018-05-01T17:06:50.820Z,0.97
2018-05-01T17:09:18.385Z,1.40
2018-05-01T17:11:45.916Z,1.30
2018-05-01T17:14:13.502Z,1.60
2018-05-01T17:16:41.054Z,1.30
2018-05-01T17:19:09.069Z,1.30
2018-05-01T17:21:36.854Z,1.20
2018-05-01T17:24:05.186Z,1.37
2018-05-01T17:26:32.702Z,1.10
2018-05-01T17:29:01.015Z,1.70
2018-05-01T17:31:28.671Z,1.40
2018-05-01T17:33:56.176Z,1.40
2018-05-01T17:36:24.493Z,1.37
2018-05-01T17:38:52.055Z,1.40
2018-05-01T17:41:19.571Z,1.40
2018-05-01T17:43:47.862Z,1.40
2018-05-01T17:46:16.168Z,1.50
2018-05-01T17:48:43.727Z,1.47
2018-05-01T17:51:11.287Z,1.80
2018-05-01T17:53:38.830Z,1.33
2018-05-01T17:56:06.371Z,1.77
2018-05-01T17:58:34.678Z,1.60
2018-05-01T18:01:02.343Z,1.63
2018-05-01T18:03:29.877Z,1.27
2018-05-01T18:05:57.465Z,1.80
2018-05-01T18:08:25.019Z,1.67
2018-05-01T18:10:52.529Z,2.17
2018-05-01T18:13:20.142Z,2.07
2018-05-01T18:15:47.795Z,1.80
2018-05-01T18:18:15.302Z,2.00
2018-05-01T18:20:42.818Z,1.80
2018-05-01T18:23:10.377Z,2.50
2018-05-01T18:25:38.019Z,2.43
2018-05-01T18:28:05.533Z,3.50
2018-05-01T18:30:33.155Z,3.03
2018-05-01T18:33:01.625Z,3.47
2018-05-01T18:35:29.195Z,3.07
2018-05-01T18:37:56.734Z,3.20
2018-05-01T18:40:24.301Z,3.93
2018-05-01T18:42:51.810Z,3.13
2018-05-01T18:45:19.346Z,3.63
2018-05-01T18:47:46.982Z,3.50
2018-05-01T18:50:14.536Z,3.80
2018-05-01T18:52:42.097Z,3.17
2018-05-01T18:55:09.651Z,2.93
2018-05-01T18:57:37.182Z,3.40
2018-05-01T19:00:04.769Z,3.53
2018-05-01T19:02:32.277Z,4.00
2018-05-01T19:05:00.593Z,3.50
2018-05-01T19:07:30.204Z,3.73
2018-05-01T19:09:57.856Z,3.50
2018-05-01T19:12:25.440Z,3.53
2018-05-01T19:14:52.975Z,3.10
2018-05-01T19:17:20.490Z,3.33
2018-05-01T19:19:48.842Z,2.20
2018-05-01T19:22:16.361Z,2.10
2018-05-01T19:24:43.947Z,2.47
2018-05-01T19:27:11.490Z,2.50
2018-05-01T19:29:39.051Z,2.10
2018-05-01T19:32:07.123Z,5.20
2018-05-01T19:34:34.676Z,9.50
2018-05-01T19:37:02.180Z,5.20
2018-05-01T19:39:29.740Z,3.60
2018-05-01T19:41:57.262Z,4.50
2018-05-01T19:44:24.797Z,3.80
2018-05-01T19:46:52.374Z,3.43
2018-05-01T19:49:19.905Z,3.53
2018-05-01T19:51:48.206Z,4.00
2018-05-01T19:54:15.807Z,3.87
2018-05-01T19:56:43.510Z,3.10
2018-05-01T19:59:11.096Z,3.80
2018-05-01T20:01:38.638Z,2.60
2018-05-01T20:04:06.226Z,3.23
2018-05-01T20:06:33.745Z,3.57
2018-05-01T20:09:01.299Z,3.20
2018-05-01T20:11:29.582Z,3.23
2018-05-01T20:13:57.094Z,2.80
2018-05-01T20:16:24.649Z,3.00
2018-05-01T20:18:52.176Z,2.47
2018-05-01T20:21:19.692Z,3.50
2018-05-01T20:23:47.997Z,2.93
2018-05-01T20:26:15.506Z,2.80
2018-05-01T20:28:44.543Z,2.47
2018-05-01T20:31:12.127Z,2.90
2018-05-01T20:33:39.619Z,2.97
2018-05-01T20:36:08.646Z,2.93
2018-05-01T20:38:36.218Z,3.20
2018-05-01T20:41:03.733Z,3.33
2018-05-01T20:43:32.043Z,3.40
2018-05-01T20:45:59.587Z,3.07
2018-05-01T20:48:27.882Z,3.60
2018-05-01T20:50:55.454Z,3.00
2018-05-01T20:53:23.000Z,3.63
2018-05-01T20:55:50.569Z,3.43
2018-05-01T20:58:18.095Z,2.97
2018-05-01T21:00:46.506Z,3.30
2018-05-01T21:03:14.028Z,2.60
2018-05-01T21:05:42.385Z,3.13
2018-05-01T21:08:09.925Z,2.97
2018-05-01T21:10:39.462Z,3.13
2018-05-01T21:13:07.730Z,3.30
2018-05-01T21:15:35.262Z,3.10
2018-05-01T21:18:02.778Z,2.93
2018-05-01T21:20:30.312Z,3.53
2018-05-01T21:22:58.966Z,3.00
2018-05-01T21:25:26.489Z,3.40
2018-05-01T21:27:54.048Z,3.37
2018-05-01T21:30:21.578Z,3.20
2018-05-01T21:32:49.858Z,3.90
2018-05-01T21:35:18.131Z,3.13
2018-05-01T21:37:46.443Z,3.20
2018-05-01T21:40:13.947Z,3.30
2018-05-01T21:42:41.505Z,3.30
2018-05-01T21:45:09.048Z,3.80
2018-05-01T21:47:36.573Z,3.00
2018-05-01T21:50:04.092Z,3.47
2018-05-01T21:52:32.415Z,3.27
2018-05-01T21:54:59.950Z,3.67
2018-05-01T21:57:27.467Z,3.23
2018-05-01T21:59:55.027Z,3.53
2018-05-01T22:02:22.538Z,3.27
2018-05-01T22:04:50.041Z,3.23
2018-05-01T22:07:17.576Z,3.20
2018-05-01T22:09:45.105Z,3.63
2018-05-01T22:12:12.666Z,3.97
2018-05-01T22:14:40.221Z,3.90
2018-05-01T22:17:07.724Z,4.17
2018-05-01T22:19:35.341Z,3.00
2018-05-01T22:22:02.884Z,3.13
2018-05-01T22:24:30.401Z,3.90
2018-05-01T22:26:58.699Z,3.63
2018-05-01T22:29:27.023Z,3.77
2018-05-01T22:31:54.555Z,4.10
2018-05-01T22:34:22.128Z,3.60
2018-05-01T22:36:49.621Z,4.27
2018-05-01T22:39:17.137Z,3.50
2018-05-01T22:41:44.714Z,4.27
2018-05-01T22:44:12.263Z,4.03
2018-05-01T22:46:39.827Z,3.97
2018-05-01T22:49:07.332Z,4.20
2018-05-01T22:51:35.637Z,4.43
2018-05-01T22:54:03.239Z,4.77
2018-05-01T22:56:30.750Z,4.30
2018-05-01T22:58:58.331Z,4.30
2018-05-01T23:01:25.829Z,4.30
2018-05-01T23:03:54.560Z,4.50
2018-05-01T23:06:22.090Z,4.43
2018-05-01T23:08:50.375Z,4.77
2018-05-01T23:11:18.691Z,4.30
2018-05-01T23:13:46.236Z,4.70
2018-05-01T23:16:13.750Z,4.30
2018-05-01T23:18:42.036Z,4.60
2018-05-01T23:21:10.333Z,4.30
2018-05-01T23:23:37.855Z,4.50
2018-05-01T23:26:05.459Z,4.43
2018-05-01T23:28:33.076Z,4.67
2018-05-01T23:31:01.398Z,4.87
2018-05-01T23:33:28.906Z,4.10
2018-05-01T23:35:58.053Z,4.07
2018-05-01T23:38:25.609Z,4.47
2018-05-01T23:40:53.171Z,4.30
2018-05-01T23:43:20.726Z,4.63
2018-05-01T23:45:48.242Z,4.33
2018-05-01T23:48:16.531Z,4.63
2018-05-01T23:50:44.842Z,4.50
2018-05-01T23:53:12.359Z,5.30
2018-05-01T23:55:40.655Z,5.27
2018-05-01T23:58:08.238Z,4.37
